Alliance, NE

1:05 PM MDT on July 22, 2014 (GMT -0600)
Alliance Municipal (KAIA) Elev 3930 ft | 42.06 °N, 102.80 °W | Change Station

Current weather conditions updated 12 minutes ago

Partly Cloudy
Partly Cloudy
91 °F
Feels Like 91 °F
N
16
Wind Variable Wind from SE
Gusts 24 mph

Today is forecast to be Much Cooler than yesterday.

Today
High -- | Low -- °F
--% Chance of Precip.
Yesterday
High -- | Low -- °F
Precip. -- in
5:35 AM 8:20 PM
Waning Crescent, 15% visible
Pressure 30.08 in
Visibility 10.0 miles
Clouds Clear
Dew Point 50 °F
Humidity 24%
Rainfall 0.00 in
Snow Depth Not available.
UV 12 out of 12
Pollen 6.20 out of 12
Air Quality Not available.
Flu Activity Sporadic
METAR KAIA 221853Z AUTO 13014G21KT 10SM CLR 33/10 A3025 RMK AO2 SLP186 T03280100

More Conditions Fewer Conditions

Pressure 30.08 in
Visibility 10.0 miles
Clouds Clear
Dew Point 50 °F
Humidity 24%
Rainfall 0.00 in
Snow Depth Not available.
UV 12 out of 12
Pollen 6.20 out of 12
Air Quality Not available.
Flu Activity Sporadic
METAR KAIA 221853Z AUTO 13014G21KT 10SM CLR 33/10 A3025 RMK AO2 SLP186 T03280100

More Conditions Fewer Conditions

10-Day Weather Forecast

Almanac

Astronomy

Jul. 22, 2014 Rise Set
Actual Time 5:35 AM MDT 8:20 PM MDT
Civil Twilight 5:02 AM MDT 8:53 PM MDT
Nautical Twilight 4:21 AM MDT 9:34 PM MDT
Astronomical Twilight 3:33 AM MDT 10:21 PM MDT
Moon 2:10 AM MDT 4:59 PM MDT
Length of Visible Light 15h 50m
Length of Day
14h 45m
Tomorrow will be 1m 49s shorter.
Waning Crescent, 15% of the Moon is Illuminated
Today
Waning Crescent
Jul 26
New
Aug 3
First Quarter
Aug 10
Full
Aug 17
Last Quarter

Today's Extremes

State Highs State Lows

Community

WunderPhotos

Upload Photos

1,736,333 photos uploaded!

Nearby

Snow Depth

Station Depth Elevation
No new snow has been reported.

Earthquake Activity

City Distance Mag. Time & Date
No recent earthquake activity has been reported nearby.
Minimum magnitude displayed is 2.5.

Coastal Water Temperatures

Place Temperature
No Stations Reporting

Nearby Weather Stations

Station Location Temp. Heat Index Dew Point Humidity Wind Precip. Elev Updated Type
Panhandle Coop/Box Butte Co, Alliance, NE 88.3 °F 86 °F 52 °F 29% ESE  at  4.0 mph 0.00 in / hr 4140 ft 12:51 PM MDT Normal
Wayne Rd., Alliance, NE 87.7 °F 86 °F 55 °F 33% ESE  at  10.0 mph 0.00 in / hr 4091 ft 12:37 PM MDT Normal

Show More Stations Show Fewer Stations